Time;durP1;ratioP1;P1;durP2;ratioP2;P2;SDS_P1;SDS_P2;PMS_P1;PMS_P2;Temp;Humidity;BMP_temperature;BMP_pressure;BME280_temperature;BME280_humidity;BME280_pressure;Samples;Min_cycle;Max_cycle;Signal;HPM_P1;HPM_P2
2023/01/06 00:00:51;;;;;;;3.20;1.52;;;11.50;99.90;;;11.57;100.00;101411.34;5142808;28;20077;-68
2023/01/06 00:03:24;;;;;;;3.20;1.70;;;11.50;99.90;;;11.57;100.00;101403.50;5142991;28;20061;-70
2023/01/06 00:05:58;;;;;;;2.05;1.30;;;11.50;99.90;;;11.57;100.00;101402.63;5143142;28;20046;-68
2023/01/06 00:08:30;;;;;;;2.15;1.40;;;11.50;99.90;;;11.55;100.00;101399.94;5158131;28;20054;-70
2023/01/06 00:11:06;;;;;;;2.92;1.85;;;11.50;99.90;;;11.55;100.00;101402.56;5157550;28;20141;-72
2023/01/06 00:13:38;;;;;;;2.88;1.58;;;11.50;99.90;;;11.55;100.00;101413.00;5134365;28;20047;-72
2023/01/06 00:16:13;;;;;;;2.83;1.30;;;11.50;99.90;;;11.56;100.00;101404.34;5142604;28;20043;-72
2023/01/06 00:18:47;;;;;;;1.55;1.27;;;11.50;99.90;;;11.55;100.00;101417.34;5142835;28;20047;-72
2023/01/06 00:21:19;;;;;;;2.58;1.48;;;11.50;99.90;;;11.53;100.00;101404.19;5142881;28;20411;-73
2023/01/06 00:23:51;;;;;;;2.00;1.15;;;11.50;99.90;;;11.52;100.00;101406.75;5142954;28;20125;-74
2023/01/06 00:26:25;;;;;;;2.03;1.35;;;11.50;99.90;;;11.51;100.00;101410.19;5142420;28;20097;-73
2023/01/06 00:28:57;;;;;;;1.63;1.20;;;11.50;99.90;;;11.50;100.00;101403.19;5142723;28;20244;-71
2023/01/06 00:31:31;;;;;;;1.55;1.10;;;11.40;99.90;;;11.51;100.00;101408.47;5157788;28;20050;-73
2023/01/06 00:34:04;;;;;;;2.00;1.23;;;11.40;99.90;;;11.49;100.00;101404.03;5144176;28;20049;-73
2023/01/06 00:36:37;;;;;;;2.55;1.55;;;11.40;99.90;;;11.49;100.00;101401.44;5146111;28;20075;-74
2023/01/06 00:39:11;;;;;;;3.03;1.48;;;11.40;99.90;;;11.47;100.00;101393.50;5161149;28;20147;-72
2023/01/06 00:44:36;;;;;;;3.40;1.40;;;11.40;99.90;;;11.47;100.00;101393.50;5161240;28;20185;-73
2023/01/06 00:47:10;;;;;;;;;;;11.40;99.90;;;11.47;100.00;101398.72;5145454;28;20061;-72
2023/01/06 00:49:44;;;;;;;1.90;1.23;;;11.40;99.90;;;11.47;100.00;101401.34;5146071;28;19960;-74
2023/01/06 00:52:16;;;;;;;2.00;1.30;;;11.40;99.90;;;11.49;100.00;101401.44;5161114;28;20098;-73
2023/01/06 00:54:48;;;;;;;2.53;1.65;;;11.40;99.90;;;11.49;100.00;101401.44;5144680;28;20053;-71
2023/01/06 00:57:20;;;;;;;2.15;1.27;;;11.40;99.90;;;11.51;100.00;101400.66;5145996;28;20043;-73
2023/01/06 00:59:53;;;;;;;3.00;1.38;;;11.40;99.90;;;11.50;100.00;101398.88;5145882;28;20300;-72
2023/01/06 01:02:25;;;;;;;2.55;1.45;;;11.40;99.90;;;11.50;100.00;101395.38;5145999;28;20064;-71
2023/01/06 01:05:11;;;;;;;2.30;1.30;;;11.40;99.90;;;11.50;100.00;101387.53;5159385;23;20047;-71
2023/01/06 01:07:47;;;;;;;2.13;1.33;;;11.40;99.90;;;11.51;100.00;101386.69;5144793;28;20046;-72
2023/01/06 01:10:20;;;;;;;2.60;1.30;;;11.40;99.90;;;11.50;100.00;101388.44;5145188;28;20046;-71
2023/01/06 01:12:53;;;;;;;2.10;1.33;;;11.40;99.90;;;11.49;100.00;101386.66;5145332;28;20137;-73
2023/01/06 01:15:26;;;;;;;2.85;1.75;;;11.40;99.90;;;11.49;100.00;101391.88;5145347;28;20070;-70
2023/01/06 01:17:58;;;;;;;1.77;1.30;;;11.40;99.90;;;11.49;100.00;101393.59;5158393;28;20142;-70
2023/01/06 01:20:37;;;;;;;2.13;1.25;;;11.40;99.90;;;11.49;100.00;101391.88;5143047;28;20504;-71
2023/01/06 01:23:09;;;;;;;2.97;1.38;;;11.40;99.90;;;11.50;100.00;101395.38;5145264;28;20045;-71
2023/01/06 01:25:41;;;;;;;1.73;1.35;;;11.40;99.90;;;11.49;100.00;101397.09;5144446;28;20055;-70
2023/01/06 01:28:13;;;;;;;1.75;1.35;;;11.40;99.90;;;11.49;100.00;101391.88;5159002;28;20049;-71
2023/01/06 01:30:46;;;;;;;2.45;1.70;;;11.40;99.90;;;11.49;100.00;101388.38;5143331;28;20054;-70
2023/01/06 01:33:18;;;;;;;1.73;1.20;;;11.40;99.90;;;11.47;100.00;101385.69;5159660;28;20137;-70
2023/01/06 01:35:53;;;;;;;3.15;1.75;;;11.40;99.90;;;11.46;100.00;101390.84;5141182;28;20034;-70
2023/01/06 01:38:27;;;;;;;2.85;1.48;;;11.40;99.90;;;11.44;100.00;101392.50;5124060;28;20510;-71
2023/01/06 01:40:59;;;;;;;2.80;1.60;;;11.40;99.90;;;11.41;100.00;101382.84;5125665;28;20133;-71
2023/01/06 01:43:45;;;;;;;2.00;1.17;;;11.40;99.90;;;11.41;100.00;101377.63;5158727;28;20073;-71
2023/01/06 01:46:24;;;;;;;2.35;1.23;;;11.40;99.90;;;11.42;100.00;101374.19;5125557;28;20047;-70
2023/01/06 01:49:01;;;;;;;1.73;1.15;;;11.40;99.90;;;11.43;100.00;101375.06;5124307;28;20492;-71
2023/01/06 01:51:39;;;;;;;2.30;1.20;;;11.40;99.90;;;11.42;100.00;101374.19;5124001;28;20400;-70
2023/01/06 01:54:17;;;;;;;2.13;1.30;;;11.40;99.90;;;11.43;100.00;101380.28;5140050;28;20047;-71
2023/01/06 01:56:58;;;;;;;2.35;2.13;;;11.40;99.90;;;11.43;100.00;101382.91;5130563;28;20050;-71
2023/01/06 01:59:34;;;;;;;2.17;1.00;;;11.40;99.90;;;11.44;100.00;101382.94;5142684;28;20523;-71
2023/01/06 02:02:09;;;;;;;1.52;1.20;;;11.40;99.90;;;11.44;100.00;101377.72;5137985;28;20059;-70
2023/01/06 02:04:47;;;;;;;1.90;1.50;;;11.40;99.90;;;11.43;100.00;101381.19;5138984;28;20050;-70
2023/01/06 02:07:26;;;;;;;1.45;1.10;;;11.40;99.90;;;11.40;100.00;101381.03;5141254;28;20057;-71
2023/01/06 02:10:09;;;;;;;1.15;0.93;;;11.40;99.90;;;11.41;100.00;101383.75;5142835;28;20038;-70
2023/01/06 02:12:42;;;;;;;1.25;0.93;;;11.40;99.90;;;11.43;100.00;101390.72;5150428;28;20062;-70
2023/01/06 02:15:18;;;;;;;1.70;1.13;;;11.40;99.90;;;11.43;100.00;101383.78;5155701;28;20124;-70
2023/01/06 02:18:38;;;;;;;1.33;0.90;;;11.40;99.90;;;11.43;100.00;101378.56;5144771;28;20684;-71
2023/01/06 02:21:30;;;;;;;1.08;0.98;;;11.40;99.90;;;11.44;100.00;101379.47;5157643;28;20459;-70
2023/01/06 02:25:02;;;;;;;1.05;0.75;;;11.40;99.90;;;11.43;100.00;101381.19;5142433;28;20074;-71
2023/01/06 02:28:28;;;;;;;1.65;1.08;;;11.40;99.90;;;11.43;100.00;101377.69;5131972;28;20508;-71
2023/01/06 02:31:51;;;;;;;1.38;0.93;;;11.40;99.90;;;11.42;100.00;101368.97;5141450;28;20046;-70
2023/01/06 02:34:40;;;;;;;1.45;0.68;;;11.40;99.90;;;11.41;100.00;101356.75;5143831;28;20078;-71
2023/01/06 02:37:28;;;;;;;2.97;1.13;;;11.40;99.90;;;11.39;100.00;101359.25;5142500;28;20050;-70
2023/01/06 02:40:22;;;;;;;3.72;1.08;;;11.40;99.90;;;11.38;100.00;101352.25;5143360;28;20500;-70
2023/01/06 02:43:12;;;;;;;2.00;1.23;;;11.30;99.90;;;11.39;100.00;101348.81;5143592;28;20057;-70
2023/01/06 02:46:02;;;;;;;1.30;0.93;;;11.30;99.90;;;11.38;100.00;101340.94;5142132;28;20138;-70
2023/01/06 02:48:47;;;;;;;1.67;0.98;;;11.30;99.90;;;11.38;100.00;101340.94;5143380;28;20039;-70
2023/01/06 02:51:30;;;;;;;1.88;1.00;;;11.30;99.90;;;11.37;100.00;101328.72;5141948;28;20097;-71
2023/01/06 02:54:17;;;;;;;1.45;0.90;;;11.30;99.90;;;11.38;100.00;101320.06;5141829;28;20046;-71
2023/01/06 02:56:55;;;;;;;1.35;0.80;;;11.30;99.90;;;11.38;100.00;101312.22;5143497;28;20480;-71
2023/01/06 02:59:34;;;;;;;1.83;1.13;;;11.30;99.90;;;11.37;100.00;101316.56;5142794;28;20569;-71
2023/01/06 03:02:11;;;;;;;0.90;0.63;;;11.30;99.90;;;11.37;100.00;101318.28;5142907;28;20058;-69
2023/01/06 03:04:47;;;;;;;1.77;0.85;;;11.30;99.90;;;11.38;100.00;101325.28;5144116;28;20038;-71
2023/01/06 03:07:22;;;;;;;1.45;0.75;;;11.30;99.90;;;11.36;100.00;101329.56;5143845;28;20043;-71
2023/01/06 03:09:56;;;;;;;4.07;0.95;;;11.30;99.90;;;11.34;100.00;101328.59;5141680;28;20055;-70
2023/01/06 03:12:44;;;;;;;1.42;1.00;;;11.30;99.90;;;11.35;100.00;101319.94;5143432;28;20037;-70
2023/01/06 03:15:18;;;;;;;1.77;1.02;;;11.30;99.90;;;11.34;100.00;101316.41;5141813;28;20053;-70
2023/01/06 03:17:50;;;;;;;0.98;0.88;;;11.30;99.90;;;11.35;100.00;101320.84;5142996;28;20061;-69
2023/01/06 03:20:24;;;;;;;2.88;1.02;;;11.30;99.90;;;11.34;100.00;101320.75;5142849;28;20496;-71
2023/01/06 03:22:57;;;;;;;1.15;0.90;;;11.30;99.90;;;11.33;100.00;101318.97;5143125;28;20045;-70
2023/01/06 03:25:31;;;;;;;;;;;11.30;99.90;;;11.31;100.00;101307.59;5158411;28;20082;-70
2023/01/06 03:28:04;;;;;;;2.75;0.85;;;11.30;99.90;;;11.34;100.00;101318.13;5157768;28;19928;-71
2023/01/06 03:30:43;;;;;;;1.95;0.70;;;11.30;99.90;;;11.29;100.00;101304.94;5141695;28;20051;-69
2023/01/06 03:33:24;;;;;;;1.92;0.80;;;11.30;99.90;;;11.28;100.00;101310.06;5141896;28;20411;-70
2023/01/06 03:36:10;;;;;;;1.15;0.70;;;11.30;99.90;;;11.28;100.00;101312.66;5157915;28;20051;-70
2023/01/06 03:38:51;;;;;;;0.77;0.70;;;11.30;99.90;;;11.28;100.00;101310.06;5143026;28;20067;-70
2023/01/06 03:44:32;;;;;;;2.35;0.80;;;11.30;99.90;;;11.32;100.00;101314.59;5142882;28;20058;-71
2023/01/06 03:47:15;;;;;;;0.93;0.75;;;11.30;99.90;;;11.32;100.00;101325.91;5158002;28;20060;-70
2023/01/06 03:49:56;;;;;;;0.82;0.55;;;11.30;99.90;;;11.35;100.00;101328.66;5157179;28;20047;-70
2023/01/06 03:52:35;;;;;;;1.58;0.60;;;11.30;99.90;;;11.33;100.00;101317.25;5142959;28;20093;-70
2023/01/06 03:55:14;;;;;;;2.72;0.80;;;11.30;99.90;;;11.32;100.00;101310.25;5142910;28;20518;-71
2023/01/06 03:57:54;;;;;;;0.47;0.47;;;11.30;99.90;;;11.30;100.00;101311.03;5157940;28;20076;-70
2023/01/06 04:00:30;;;;;;;0.60;0.60;;;11.30;99.90;;;11.27;100.00;101301.34;5157098;28;20101;-70
2023/01/06 04:03:09;;;;;;;0.90;0.60;;;11.30;99.90;;;11.28;100.00;101304.84;5158054;28;20046;-70
2023/01/06 04:05:43;;;;;;;0.63;0.52;;;11.30;99.90;;;11.26;100.00;101302.19;5157933;28;20051;-71
2023/01/06 04:08:18;;;;;;;1.17;0.52;;;11.30;99.90;;;11.27;100.00;101311.78;5157868;28;20043;-70
2023/01/06 04:10:50;;;;;;;1.90;0.60;;;11.30;99.90;;;11.29;100.00;101319.69;5161341;28;20055;-70
2023/01/06 04:13:22;;;;;;;0.55;0.52;;;11.30;99.90;;;11.29;100.00;101306.66;5161322;28;20062;-69
2023/01/06 04:15:54;;;;;;;0.90;0.47;;;11.30;99.90;;;11.29;100.00;101310.16;5146353;28;20039;-69
2023/01/06 04:18:26;;;;;;;2.13;0.60;;;11.30;99.90;;;11.31;100.00;101307.59;5161576;28;20066;-69
2023/01/06 04:20:59;;;;;;;0.60;0.60;;;11.30;99.90;;;11.28;100.00;101297.00;5144471;28;20051;-70
2023/01/06 04:23:35;;;;;;;;;;;11.30;99.90;;;11.27;100.00;101292.63;5145386;28;20050;-69
2023/01/06 04:26:11;;;;;;;1.10;0.60;;;11.30;99.90;;;11.27;100.00;101292.63;5144881;28;19933;-70
2023/01/06 04:28:50;;;;;;;1.42;0.50;;;11.30;99.90;;;11.27;100.00;101293.53;5144605;28;20555;-70
2023/01/06 04:31:23;;;;;;;0.88;0.70;;;11.30;99.90;;;11.28;100.00;101291.78;5161270;28;20085;-74
2023/01/06 04:33:58;;;;;;;1.20;0.75;;;11.30;99.90;;;11.28;100.00;101291.78;5162118;28;20054;-74
2023/01/06 04:36:31;;;;;;;0.73;0.45;;;11.30;99.90;;;11.27;100.00;101290.03;5161785;28;20078;-73
2023/01/06 04:39:05;;;;;;;3.63;0.70;;;11.30;99.90;;;11.26;100.00;101289.13;5161455;28;20462;-73
2023/01/06 04:41:37;;;;;;;1.15;0.68;;;11.30;99.90;;;11.27;100.00;101284.78;5147003;28;20051;-74
2023/01/06 04:44:09;;;;;;;0.75;0.70;;;11.20;99.90;;;11.26;100.00;101283.03;5146821;28;20073;-73
2023/01/06 04:46:41;;;;;;;1.20;0.52;;;11.30;99.90;;;11.26;100.00;101277.81;5147075;28;20380;-73
2023/01/06 04:49:13;;;;;;;1.20;0.50;;;11.30;99.90;;;11.26;100.00;101272.59;5146303;28;20047;-74
2023/01/06 04:51:45;;;;;;;0.65;0.50;;;11.30;99.90;;;11.24;100.00;101263.81;5146580;28;20105;-74
2023/01/06 04:54:19;;;;;;;1.00;0.63;;;11.20;99.90;;;11.24;100.00;101269.03;5161567;28;20483;-73
2023/01/06 04:56:51;;;;;;;1.48;0.60;;;11.20;99.90;;;11.24;100.00;101258.59;5146585;28;20050;-74
2023/01/06 04:59:23;;;;;;;4.90;1.52;;;11.30;99.90;;;11.24;100.00;101255.97;5145866;28;20043;-74
2023/01/06 05:01:55;;;;;;;1.13;0.63;;;11.20;99.90;;;11.23;100.00;101257.72;5146540;28;20054;-74
2023/01/06 05:04:27;;;;;;;1.13;0.57;;;11.20;99.90;;;11.23;100.00;101252.50;5146422;28;20047;-74
2023/01/06 05:06:59;;;;;;;1.05;0.50;;;11.20;99.90;;;11.25;100.00;101260.38;5146428;28;20049;-73
2023/01/06 05:09:33;;;;;;;0.77;0.75;;;11.30;99.90;;;11.25;100.00;101260.38;5145862;28;20054;-74
2023/01/06 05:12:05;;;;;;;1.08;0.52;;;11.20;99.90;;;11.24;100.00;101259.47;5146464;28;20042;-74
2023/01/06 05:14:38;;;;;;;0.60;0.60;;;11.20;99.90;;;11.25;100.00;101255.16;5146640;28;20043;-73
2023/01/06 05:17:10;;;;;;;0.73;0.60;;;11.20;99.90;;;11.25;100.00;101258.66;5146347;28;20043;-74
2023/01/06 05:19:43;;;;;;;0.50;0.50;;;11.20;99.90;;;11.26;100.00;101252.59;5145488;28;20046;-73
2023/01/06 05:22:15;;;;;;;0.93;0.43;;;11.30;99.90;;;11.26;100.00;101256.94;5145587;28;20684;-74
2023/01/06 05:24:48;;;;;;;0.95;0.52;;;11.30;99.90;;;11.26;100.00;101242.16;5146137;28;20075;-74
2023/01/06 05:27:21;;;;;;;0.60;0.60;;;11.30;99.90;;;11.26;100.00;101243.88;5146298;28;20051;-75
2023/01/06 05:29:53;;;;;;;0.68;0.50;;;11.30;99.90;;;11.27;100.00;101253.47;5145404;28;20510;-74
2023/01/06 05:32:25;;;;;;;1.77;0.52;;;11.30;99.90;;;11.29;100.00;101257.06;5146091;28;20495;-74
2023/01/06 05:34:57;;;;;;;0.63;0.55;;;11.30;99.90;;;11.30;100.00;101253.63;5145878;28;20047;-73
2023/01/06 05:37:29;;;;;;;1.02;0.52;;;11.30;99.90;;;11.33;100.00;101256.34;5146384;28;20418;-73
2023/01/06 05:40:02;;;;;;;0.88;0.52;;;11.30;99.90;;;11.33;100.00;101253.72;5145502;28;20042;-74
2023/01/06 05:42:34;;;;;;;2.00;0.60;;;11.30;99.90;;;11.31;100.00;101250.16;5145905;28;20503;-73
2023/01/06 05:45:09;;;;;;;0.98;0.60;;;11.30;99.90;;;11.30;100.00;101254.50;5145716;28;20506;-73
2023/01/06 05:47:41;;;;;;;1.27;0.63;;;11.30;99.90;;;11.30;100.00;101257.13;5145802;28;20047;-75
2023/01/06 05:50:13;;;;;;;0.82;0.52;;;11.30;99.90;;;11.32;100.00;101246.72;5144116;28;20066;-73
2023/01/06 05:52:45;;;;;;;0.95;0.50;;;11.30;99.90;;;11.31;100.00;101240.63;5145511;28;20057;-73
2023/01/06 05:55:19;;;;;;;0.60;0.60;;;11.30;99.90;;;11.31;100.00;101252.78;5145490;28;20050;-74
2023/01/06 05:57:51;;;;;;;0.40;0.40;;;11.30;99.90;;;11.29;100.00;101250.13;5145334;28;20078;-73
2023/01/06 06:00:23;;;;;;;0.70;0.52;;;11.30;99.90;;;11.30;100.00;101251.00;5145012;28;20042;-75
2023/01/06 06:02:56;;;;;;;2.17;0.70;;;11.30;99.90;;;11.31;100.00;101253.66;5145116;28;20079;-74
2023/01/06 06:05:28;;;;;;;1.17;0.55;;;11.30;99.90;;;11.34;100.00;101256.38;5145448;28;20503;-73
2023/01/06 06:08:00;;;;;;;2.50;0.60;;;11.30;99.90;;;11.33;100.00;101258.94;5145253;28;20411;-74
2023/01/06 06:10:33;;;;;;;1.50;0.50;;;11.30;99.90;;;11.37;100.00;101263.47;5143590;28;20051;-73
2023/01/06 06:13:05;;;;;;;1.30;0.63;;;11.30;99.90;;;11.37;100.00;101266.97;5145372;28;20047;-74
2023/01/06 06:15:37;;;;;;;1.77;0.52;;;11.30;99.90;;;11.36;100.00;101264.31;5145370;28;20039;-74
2023/01/06 06:18:09;;;;;;;0.40;0.40;;;11.30;99.90;;;11.35;100.00;101267.75;5144985;28;20411;-74
2023/01/06 06:20:41;;;;;;;0.57;0.50;;;11.30;99.90;;;11.36;100.00;101259.09;5143441;28;20050;-74
2023/01/06 06:23:14;;;;;;;0.50;0.43;;;11.30;99.90;;;11.37;100.00;101255.63;5145151;28;20567;-74
2023/01/06 06:25:50;;;;;;;0.88;0.57;;;11.40;99.90;;;11.36;100.00;101264.31;5145043;28;20122;-74
2023/01/06 06:28:22;;;;;;;1.20;0.50;;;11.30;99.90;;;11.35;100.00;101262.53;5144777;28;20047;-73
2023/01/06 06:30:54;;;;;;;1.25;0.68;;;11.30;99.90;;;11.33;100.00;101259.84;5144268;28;20046;-74
2023/01/06 06:33:26;;;;;;;1.02;0.57;;;11.30;99.90;;;11.37;100.00;101255.63;5144316;28;20130;-73
2023/01/06 06:35:59;;;;;;;1.00;0.55;;;11.30;99.90;;;11.38;100.00;101265.25;5145147;28;20074;-74
2023/01/06 06:38:32;;;;;;;0.40;0.32;;;11.30;99.90;;;11.36;100.00;101259.09;5144229;28;20422;-73
2023/01/06 06:41:06;;;;;;;0.70;0.50;;;11.30;99.90;;;11.35;100.00;101262.53;5144238;28;20523;-73
2023/01/06 06:43:38;;;;;;;0.85;0.40;;;11.30;99.90;;;11.36;100.00;101266.91;5159100;28;20789;-73
2023/01/06 06:46:10;;;;;;;1.58;0.50;;;11.30;99.90;;;11.36;100.00;101265.19;5144497;28;20410;-74
2023/01/06 06:48:42;;;;;;;1.50;0.50;;;11.30;99.90;;;11.38;100.00;101262.63;5144563;28;20035;-74
2023/01/06 06:51:17;;;;;;;2.78;0.50;;;11.40;99.90;;;11.38;100.00;101267.84;5144451;28;20145;-73
2023/01/06 06:53:50;;;;;;;0.82;0.45;;;11.40;99.90;;;11.35;100.00;101257.31;5144006;28;20057;-73
2023/01/06 06:56:23;;;;;;;2.83;0.52;;;11.30;99.90;;;11.36;100.00;101254.75;5144165;28;20064;-73
2023/01/06 06:58:56;;;;;;;0.35;0.35;;;11.30;99.90;;;11.35;100.00;101257.31;5144235;28;20050;-74
2023/01/06 07:01:30;;;;;;;1.73;0.52;;;11.30;99.90;;;11.36;100.00;101253.84;5144226;28;20043;-70
2023/01/06 07:04:30;;;;;;;0.95;0.50;;;11.30;99.90;;;11.36;100.00;101257.34;5156065;23;20075;31
2023/01/06 07:07:02;;;;;;;0.75;0.50;;;11.40;99.90;;;11.38;100.00;101275.69;5082220;29;20083;-60
2023/01/06 07:09:34;;;;;;;0.85;0.28;;;11.30;99.90;;;11.38;100.00;101262.63;5084312;29;20048;-61
2023/01/06 07:12:08;;;;;;;1.08;0.55;;;11.40;99.90;;;11.40;100.00;101269.69;5084228;29;20060;-60
2023/01/06 07:14:40;;;;;;;0.32;0.32;;;11.40;99.90;;;11.40;100.00;101261.84;5084185;29;20051;-58
2023/01/06 07:17:12;;;;;;;0.70;0.70;;;11.40;99.90;;;11.43;100.00;101261.09;5083944;29;20052;-60
2023/01/06 07:19:44;;;;;;;2.13;0.52;;;11.40;99.90;;;11.41;100.00;101268.88;5084117;29;20048;-59
2023/01/06 07:22:16;;;;;;;0.43;0.35;;;11.40;99.90;;;11.44;100.00;101254.16;5082752;29;20055;-61
2023/01/06 07:24:48;;;;;;;1.15;0.45;;;11.40;99.90;;;11.44;100.00;101259.38;5084211;29;20108;-59
2023/01/06 07:27:22;;;;;;;0.98;0.40;;;11.40;99.90;;;11.46;100.00;101255.09;5084023;29;20045;-60
2023/01/06 07:29:54;;;;;;;0.63;0.60;;;11.40;99.90;;;11.46;100.00;101250.75;5084051;29;20052;-61
2023/01/06 07:32:26;;;;;;;1.20;0.60;;;11.40;99.90;;;11.47;100.00;101246.41;5083766;29;20055;-62
2023/01/06 07:34:58;;;;;;;0.60;0.60;;;11.40;99.90;;;11.50;100.00;101244.84;5083937;29;20052;-60
2023/01/06 07:37:30;;;;;;;0.90;0.65;;;11.40;99.90;;;11.52;100.00;101240.56;5083385;29;20044;-61
2023/01/06 07:40:02;;;;;;;1.88;0.80;;;11.50;99.90;;;11.51;100.00;101232.66;5083631;29;20044;-60
2023/01/06 07:42:37;;;;;;;0.85;0.50;;;11.50;99.90;;;11.49;100.00;101219.56;5083880;29;20056;-59
2023/01/06 07:45:10;;;;;;;1.42;0.50;;;11.50;99.90;;;11.51;100.00;101222.22;5086528;29;20055;-58
2023/01/06 07:47:42;;;;;;;0.63;0.52;;;11.50;99.90;;;11.45;100.00;101224.59;5087733;29;20046;-60
2023/01/06 07:50:15;;;;;;;0.45;0.40;;;11.40;99.90;;;11.42;100.00;101222.78;5087722;29;20080;-60
2023/01/06 07:52:47;;;;;;;2.05;0.55;;;11.40;99.90;;;11.46;100.00;101222.03;5087702;29;20484;-59
2023/01/06 07:55:19;;;;;;;1.40;0.70;;;11.40;99.90;;;11.53;100.00;101226.66;5087936;29;20048;-59
2023/01/06 07:57:52;;;;;;;1.20;0.55;;;11.50;99.90;;;11.53;100.00;101220.56;5087319;29;20059;-61
2023/01/06 08:00:25;;;;;;;0.95;0.50;;;11.50;99.90;;;11.50;100.00;101226.56;5087286;29;20052;-60
2023/01/06 08:02:57;;;;;;;0.57;0.57;;;11.50;99.90;;;11.53;100.00;101234.50;5087292;29;20058;-60
2023/01/06 08:05:29;;;;;;;0.47;0.43;;;11.50;99.90;;;11.51;100.00;101219.59;5087225;29;20532;-60
2023/01/06 08:08:01;;;;;;;0.60;0.50;;;11.50;99.90;;;11.56;100.00;101224.19;5087376;29;20052;-60
2023/01/06 08:10:38;;;;;;;0.50;0.40;;;11.50;99.90;;;11.55;100.00;101235.47;5087163;29;20401;-60
2023/01/06 08:13:11;;;;;;;0.40;0.40;;;11.50;99.90;;;11.61;100.00;101240.91;5087363;29;20052;-61
2023/01/06 08:15:44;;;;;;;0.70;0.40;;;11.60;99.90;;;11.62;100.00;101237.47;5087170;29;20414;-60
2023/01/06 08:18:16;;;;;;;1.17;0.52;;;11.60;99.90;;;11.61;100.00;101251.34;5087259;29;20052;-60
2023/01/06 08:20:48;;;;;;;0.47;0.35;;;11.60;99.90;;;11.61;100.00;101248.75;5087840;29;20494;-61
2023/01/06 08:23:20;;;;;;;0.47;0.47;;;11.60;99.90;;;11.63;100.00;101252.28;5087554;29;20055;-59
2023/01/06 08:25:52;;;;;;;0.68;0.63;;;11.60;99.90;;;11.63;100.00;101254.91;5087490;29;20051;-60
2023/01/06 08:28:25;;;;;;;1.25;0.50;;;11.60;99.90;;;11.63;100.00;101257.53;5086536;29;20044;-60
2023/01/06 08:30:58;;;;;;;1.80;0.70;;;11.60;99.90;;;11.65;100.00;101257.56;5086160;29;20044;-60
2023/01/06 08:33:30;;;;;;;0.45;0.45;;;11.60;99.90;;;11.65;100.00;101253.22;5086363;29;20066;-61
2023/01/06 08:36:05;;;;;;;0.55;0.45;;;11.60;99.90;;;11.66;100.00;101252.41;5086081;29;20056;-59
2023/01/06 08:38:37;;;;;;;1.15;0.43;;;11.60;99.90;;;11.66;100.00;101264.56;5085896;29;20044;-60
2023/01/06 08:41:10;;;;;;;0.50;0.50;;;11.60;99.90;;;11.65;100.00;101266.28;5086220;29;20558;-60
2023/01/06 08:43:45;;;;;;;0.90;0.43;;;11.60;99.90;;;11.66;100.00;101270.69;5086656;29;20393;-59
2023/01/06 08:46:20;;;;;;;0.55;0.45;;;11.60;99.90;;;11.67;100.00;101267.25;5086883;29;20127;-60
2023/01/06 08:48:52;;;;;;;1.10;0.60;;;11.60;99.90;;;11.71;100.00;101272.59;5086958;29;20060;-60
2023/01/06 08:51:25;;;;;;;1.02;0.32;;;11.70;99.90;;;11.71;100.00;101273.47;5087369;29;20044;-59
2023/01/06 08:53:57;;;;;;;0.40;0.30;;;11.70;99.90;;;11.71;100.00;101277.81;5085693;29;20413;-59
2023/01/06 08:56:31;;;;;;;1.02;0.43;;;11.70;99.90;;;11.69;100.00;101278.66;5086801;29;20054;-60
2023/01/06 08:59:05;;;;;;;0.47;0.43;;;11.70;99.90;;;11.70;100.00;101276.91;5086637;29;20051;-59
2023/01/06 09:01:37;;;;;;;0.25;0.25;;;11.70;99.90;;;11.72;100.00;101280.47;5086689;29;20052;-59
2023/01/06 09:04:10;;;;;;;0.35;0.35;;;11.70;99.90;;;11.73;100.00;101286.56;5086698;29;20056;-59
2023/01/06 09:06:46;;;;;;;0.80;0.45;;;11.70;99.90;;;11.74;100.00;101291.00;5086501;29;20425;-60
2023/01/06 09:09:18;;;;;;;0.45;0.38;;;11.70;99.90;;;11.74;100.00;101289.28;5086499;29;20394;-59
2023/01/06 09:11:50;;;;;;;0.68;0.50;;;11.70;99.90;;;11.75;100.00;101290.16;5086758;29;20386;-60
2023/01/06 09:14:23;;;;;;;0.57;0.43;;;11.70;99.90;;;11.75;100.00;101298.88;5086417;29;20056;-59
2023/01/06 09:16:55;;;;;;;0.60;0.50;;;11.70;99.90;;;11.77;100.00;101304.16;5086333;29;20048;-59
2023/01/06 09:19:27;;;;;;;0.98;0.30;;;11.70;99.90;;;11.77;100.00;101298.94;5085319;29;20048;-60
2023/01/06 09:22:00;;;;;;;0.45;0.32;;;11.70;99.90;;;11.79;100.00;101308.59;5085133;29;20048;-60
2023/01/06 09:24:32;;;;;;;0.43;0.43;;;11.70;99.90;;;11.82;100.00;101302.66;5086685;29;20720;-60
2023/01/06 09:27:04;;;;;;;0.82;0.32;;;11.80;99.90;;;11.86;100.00;101305.41;5084858;29;20052;-60
2023/01/06 09:29:37;;;;;;;0.95;0.38;;;11.70;99.90;;;11.91;100.00;101313.44;5086274;29;20052;-61
2023/01/06 09:32:09;;;;;;;0.47;0.45;;;11.80;99.90;;;11.99;100.00;101311.09;5086131;29;20048;-60
2023/01/06 09:34:41;;;;;;;0.30;0.30;;;11.80;99.90;;;12.08;100.00;101309.72;5086131;29;20547;-60
2023/01/06 09:37:14;;;;;;;0.40;0.40;;;11.90;99.90;;;12.14;100.00;101317.81;5085991;29;20058;-60
2023/01/06 09:39:46;;;;;;;0.22;0.22;;;12.00;99.90;;;12.20;100.00;101311.91;5084666;29;20067;-60
2023/01/06 09:42:48;;;;;;;0.30;0.30;;;12.00;99.90;;;12.26;100.00;101319.06;5085904;29;20052;-60
2023/01/06 09:45:35;;;;;;;0.22;0.22;;;12.10;99.90;;;12.30;100.00;101314.00;5085943;29;20520;-60
2023/01/06 09:48:14;;;;;;;0.47;0.40;;;12.10;99.90;;;12.38;100.00;101323.00;5085871;29;20557;-58
2023/01/06 09:50:51;;;;;;;0.52;0.52;;;12.20;99.90;;;12.45;100.00;101319.81;5084861;29;20482;-60
2023/01/06 09:53:26;;;;;;;1.58;0.50;;;12.30;99.90;;;12.51;100.00;101316.50;5086351;29;20048;-60
2023/01/06 09:56:02;;;;;;;0.50;0.38;;;12.30;99.90;;;12.51;100.00;101319.09;5085709;29;20044;-60
2023/01/06 09:58:38;;;;;;;0.77;0.40;;;12.40;99.90;;;12.56;100.00;101320.16;5085596;29;20047;-60
2023/01/06 10:01:15;;;;;;;0.50;0.50;;;12.40;99.90;;;12.67;100.00;101321.44;5085674;29;20047;-60
2023/01/06 10:03:48;;;;;;;0.32;0.32;;;12.50;99.90;;;12.80;100.00;101321.84;5085862;29;20062;-60
2023/01/06 10:06:31;;;;;;;1.27;0.40;;;12.60;99.90;;;12.99;100.00;101321.63;5084889;29;20051;-59
2023/01/06 10:09:23;;;;;;;0.85;0.40;;;12.80;99.90;;;13.13;100.00;101322.09;5083114;29;20406;-63
2023/01/06 10:12:08;;;;;;;1.02;0.40;;;12.90;99.90;;;13.42;100.00;101320.44;5085047;29;20051;-63
2023/01/06 10:14:53;;;;;;;1.30;0.50;;;13.20;99.90;;;13.72;100.00;101326.63;5085584;29;20048;-67
2023/01/06 10:17:59;;;;;;;0.22;0.22;;;13.60;99.90;;;13.90;100.00;101330.66;5085765;29;20052;-61
2023/01/06 10:20:54;;;;;;;0.95;0.30;;;13.80;99.90;;;13.88;100.00;101327.06;5085855;29;20048;-61
2023/01/06 10:24:08;;;;;;;0.45;0.30;;;13.70;99.90;;;13.79;100.00;101331.22;5085773;29;20056;-61
2023/01/06 10:26:42;;;;;;;;;;;13.70;99.90;;;13.66;100.00;101326.44;5083764;29;20143;-61
2023/01/06 10:29:18;;;;;;;0.30;0.30;;;13.60;99.90;;;13.53;100.00;101332.13;5085017;29;19927;-60
2023/01/06 10:31:54;;;;;;;0.77;0.22;;;13.50;99.90;;;13.44;100.00;101324.91;5085032;29;20515;-60
2023/01/06 10:34:28;;;;;;;0.60;0.57;;;13.40;99.90;;;13.39;100.00;101320.34;5085150;29;20410;-60
2023/01/06 10:37:12;;;;;;;0.28;0.28;;;13.30;99.90;;;13.33;100.00;101322.78;5084833;29;20180;-60
2023/01/06 10:39:49;;;;;;;0.38;0.22;;;13.20;99.90;;;13.30;100.00;101326.16;5084906;29;20051;-60
2023/01/06 10:45:19;;;;;;;0.22;0.22;;;13.10;99.90;;;13.18;100.00;101347.59;5084745;29;20059;-60
2023/01/06 10:47:52;;;;;;;0.40;0.40;;;13.10;99.90;;;13.09;100.00;101346.38;5085076;29;20143;-61
2023/01/06 10:50:27;;;;;;;0.30;0.30;;;13.00;99.90;;;12.98;100.00;101344.31;5084576;29;20040;-60
2023/01/06 10:52:59;;;;;;;0.28;0.28;;;12.90;99.90;;;12.91;100.00;101336.16;5084648;29;20048;-61